RKTU/CHN METAR and TAF weather

Enter ICAO airport designator
Station Type Date Time Source
RKTU METAR 2019/10/23 02:18 UTC NOAA

RKTU 230218Z 23SPECI


Station Type Date Time Source
RKTU Decoded METAR 2019/10/23 02:18 UTC NOAA

Chongju Ab, Korea, South (RKTU) 36-42N 127-30E 66M
Oct 22, 2019 - 10:18 PM EDT / 2019.10.23 0218 UTC
ob: RKTU 230218Z 23SPECI
cycle: 2

Station Type Date Time Source
RKTU TAF 2019/10/22 18:12 UTC NOAA

TAF TAF RKTU 221700Z 2218/2324 06006KT CAVOK TN08/2221Z TX21/2306Z

Example: see airport list